Rechercher aéroport 
image banner adimage banner adimage banner ad
image banner ad

80CA - Bacchi Valley Industries

Situé à Lotus, United States

ICAO - 80CA, IATA -

Données fournies par Airmate  

Information générale

Coordonnées: N38°49'3" W120°55'21"
Élévation : 760 feet MSL.
Variation magnétique : 16° East
Voir autres Aéroports à California

Données opérationnelles

Special qualification required
Heure actuelle UTC:
Heure actuelle locale:
Météo à : KPVF - Placerville ( 18 km )
METAR: KPVF 020455Z AUTO 19004KT 10SM CLR 23/06 A3014 RMK AO1
Voir NOTAMs / SUP AIP / TFR affectant cet aéroport [VIEW]
Fréquences de communication: [VIEW]

Pistes:

Identifiant RWYQFULongueur (ft)Largeur (ft)SurfaceLDA (ft)
NW180040OTHER
SE180040OTHER

Coordonnées de l'aéroport

Adresse: Lotus United States

Vue satellite de 80CA